Time;durP1;ratioP1;P1;durP2;ratioP2;P2;SDS_P1;SDS_P2;PMS_P1;PMS_P2;Temp;Humidity;BMP_temperature;BMP_pressure;BME280_temperature;BME280_humidity;BME280_pressure;Samples;Min_cycle;Max_cycle;Signal;HPM_P1;HPM_P2
2024/01/13 00:01:47;;;;;;;;;58.00;41.33;;;;;3.31;69.28;102625.31;5073343;28;45051;-80
2024/01/13 00:04:12;;;;;;;;;43.67;36.67;;;;;3.24;69.28;102628.22;5065959;28;45279;-80
2024/01/13 00:06:37;;;;;;;;;47.67;35.33;;;;;3.28;69.11;102619.31;5053875;28;45376;-78
2024/01/13 00:09:03;;;;;;;;;49.00;36.33;;;;;3.15;68.80;102607.47;5073650;28;45478;-78
2024/01/13 00:11:28;;;;;;;;;46.67;38.33;;;;;3.15;68.21;102597.81;5071031;28;45728;-80
2024/01/13 00:13:53;;;;;;;;;31.67;31.67;;;;;3.22;68.74;102609.00;5072830;28;45154;-80
2024/01/13 00:16:19;;;;;;;;;50.00;36.33;;;;;3.24;68.59;102608.03;5070737;28;45008;-79
2024/01/13 00:18:44;;;;;;;;;44.00;34.33;;;;;3.27;69.65;102596.56;5071342;28;45250;-78
2024/01/13 00:21:10;;;;;;;;;52.33;39.00;;;;;3.28;69.08;102603.53;5071179;28;45214;-78
2024/01/13 00:23:36;;;;;;;;;55.33;41.00;;;;;2.58;69.03;102535.75;5071532;28;45198;-78
2024/01/13 00:26:02;;;;;;;;;50.33;36.67;;;;;2.95;70.28;102595.84;5071757;28;44920;-78
2024/01/13 00:28:27;;;;;;;;;47.67;38.00;;;;;2.94;70.29;102590.63;5070919;28;45077;-76
2024/01/13 00:30:53;;;;;;;;;44.00;36.00;;;;;2.84;70.45;102595.34;5070466;28;45248;-79
2024/01/13 00:33:18;;;;;;;;;46.00;36.00;;;;;2.40;70.21;102508.34;5071278;28;45392;-79
2024/01/13 00:35:44;;;;;;;;;40.67;30.33;;;;;2.93;69.87;102565.28;5072807;28;44998;-78
2024/01/13 00:38:09;;;;;;;;;55.67;41.67;;;;;2.91;69.32;102552.19;5072009;28;45525;-80
2024/01/13 00:40:34;;;;;;;;;54.33;36.67;;;;;3.15;69.33;102579.41;5073502;28;45004;-78
2024/01/13 00:43:00;;;;;;;;;46.33;36.00;;;;;3.21;69.09;102584.50;5073956;28;44937;-79
2024/01/13 00:45:25;;;;;;;;;42.00;33.33;;;;;3.02;68.84;102526.44;5073035;28;44835;-78
2024/01/13 00:47:50;;;;;;;;;48.00;39.00;;;;;3.31;68.68;102546.44;5073230;28;45083;-80
2024/01/13 00:50:16;;;;;;;;;42.00;35.33;;;;;3.36;68.59;102552.41;5072796;28;45173;-79
2024/01/13 00:52:41;;;;;;;;;41.33;32.67;;;;;3.29;68.74;102571.94;5072745;28;45323;-79
2024/01/13 00:55:07;;;;;;;;;44.00;38.33;;;;;3.15;69.69;102539.13;5073625;28;45099;-79
2024/01/13 00:57:32;;;;;;;;;52.67;39.00;;;;;3.34;69.39;102572.63;5072899;28;46599;-78
2024/01/13 00:59:58;;;;;;;;;46.67;36.33;;;;;2.97;69.08;102512.56;5071850;28;45010;-78
2024/01/13 01:02:23;;;;;;;;;5.33;0.00;;;;;3.31;69.55;102585.88;5066442;28;45422;-78
2024/01/13 01:04:49;;;;;;;;;42.00;37.00;;;;;3.30;69.47;102573.66;5072068;28;44980;-77
2024/01/13 01:07:14;;;;;;;;;47.33;35.00;;;;;2.99;69.06;102525.66;5069969;28;45502;-78
2024/01/13 01:09:39;;;;;;;;;54.00;40.00;;;;;3.40;68.93;102576.81;5070982;28;45492;-77
2024/01/13 01:12:05;;;;;;;;;51.33;38.33;;;;;3.34;69.51;102563.88;5070621;28;45280;-77
2024/01/13 01:14:30;;;;;;;;;42.00;33.00;;;;;3.42;69.32;102575.00;5069371;28;44982;-77
2024/01/13 01:16:56;;;;;;;;;56.00;38.67;;;;;3.44;69.66;102575.81;5051751;28;47679;-79
2024/01/13 01:19:21;;;;;;;;;43.67;36.00;;;;;3.38;68.70;102577.78;5051877;28;45079;-79
2024/01/13 01:21:46;;;;;;;;;39.00;35.33;;;;;3.22;68.98;102549.41;5070327;28;45036;-79
2024/01/13 01:24:12;;;;;;;;;28.00;21.67;;;;;3.33;69.53;102565.66;5071275;28;44948;-78
2024/01/13 01:26:37;;;;;;;;;41.67;35.33;;;;;3.32;68.87;102563.94;5052824;28;47138;-78
2024/01/13 01:29:02;;;;;;;;;47.67;38.67;;;;;3.35;69.35;102553.31;5053107;28;45902;-78
2024/01/13 01:31:28;;;;;;;;;41.33;36.67;;;;;2.93;68.36;102491.72;5070255;28;44913;-79
2024/01/13 01:33:53;;;;;;;;;53.33;36.33;;;;;3.45;68.71;102571.41;5071739;28;45227;-77
2024/01/13 01:36:19;;;;;;;;;49.33;41.00;;;;;3.44;69.02;102548.66;5070514;28;45430;-78
2024/01/13 01:38:44;;;;;;;;;41.00;36.33;;;;;3.63;68.97;102569.00;5070556;28;44947;-77
2024/01/13 01:41:16;;;;;;;;;39.00;33.67;;;;;3.61;68.16;102565.56;5072218;28;45673;-78
2024/01/13 01:43:41;;;;;;;;;45.67;36.67;;;;;3.61;68.91;102570.81;5073258;28;45187;-77
2024/01/13 01:46:07;;;;;;;;;49.00;35.33;;;;;3.41;68.93;102536.50;5070526;28;45306;-78
2024/01/13 01:48:40;;;;;;;;;37.33;31.33;;;;;3.52;68.05;102552.72;5069566;28;45306;-77
2024/01/13 01:51:06;;;;;;;;;42.67;35.33;;;;;2.69;68.78;102433.00;5070299;28;45346;-80
2024/01/13 01:53:35;;;;;;;;;35.67;32.33;;;;;3.53;68.86;102553.59;5069994;28;44955;-76
2024/01/13 01:56:04;;;;;;;;;40.33;35.00;;;;;3.08;68.21;102483.31;5069623;28;46003;-79
2024/01/13 01:58:31;;;;;;;;;44.33;36.67;;;;;3.56;67.94;102559.59;5069505;28;45558;-78
2024/01/13 02:00:57;;;;;;;;;37.00;30.33;;;;;3.08;68.21;102483.31;5069571;28;45325;-78
2024/01/13 02:03:22;;;;;;;;;43.00;36.33;;;;;3.29;68.47;102522.00;5071082;28;45440;-76
2024/01/13 02:05:47;;;;;;;;;43.67;34.67;;;;;2.92;68.39;102458.47;5071917;28;45574;-77
2024/01/13 02:08:13;;;;;;;;;43.33;33.00;;;;;3.30;69.06;102550.00;5069649;28;44978;-79
2024/01/13 02:10:39;;;;;;;;;49.67;39.00;;;;;2.61;69.58;102461.31;5073274;28;45151;-79
2024/01/13 02:13:04;;;;;;;;;47.33;34.33;;;;;2.62;69.46;102450.75;5073829;28;44922;-79
2024/01/13 02:15:29;;;;;;;;;35.00;28.33;;;;;3.39;69.19;102553.19;5074771;28;45229;-77
2024/01/13 02:17:55;;;;;;;;;49.33;33.67;;;;;3.42;68.88;102540.84;5074564;28;45076;-77
2024/01/13 02:20:20;;;;;;;;;42.00;31.67;;;;;3.50;68.91;102533.53;5074022;28;45113;-77
2024/01/13 02:22:45;;;;;;;;;36.67;30.00;;;;;3.66;68.66;102546.97;5076278;28;45010;-79
2024/01/13 02:25:11;;;;;;;;;41.67;32.33;;;;;3.69;68.14;102543.38;5071864;28;45142;-75
2024/01/13 02:27:36;;;;;;;;;39.00;30.67;;;;;3.70;67.08;102538.06;5077104;28;44919;-77
2024/01/13 02:30:02;;;;;;;;;30.00;25.67;;;;;3.53;68.08;102509.75;5075366;28;45016;-77
2024/01/13 02:32:28;;;;;;;;;41.00;36.00;;;;;3.73;67.99;102532.69;5076083;28;45074;-79
2024/01/13 02:34:53;;;;;;;;;37.33;29.67;;;;;3.76;67.59;102536.97;5075461;28;46055;-78
2024/01/13 02:37:18;;;;;;;;;38.67;34.00;;;;;3.22;67.61;102449.53;5075991;28;45190;-78
2024/01/13 02:39:46;;;;;;;;;42.00;32.67;;;;;3.65;67.99;102542.63;5076822;28;45156;-77
2024/01/13 02:42:11;;;;;;;;;40.33;29.67;;;;;3.42;68.70;102534.72;5072886;28;45263;-78
2024/01/13 02:44:36;;;;;;;;;41.67;31.00;;;;;3.15;68.28;102515.50;5073297;28;45436;-79
2024/01/13 02:47:02;;;;;;;;;30.33;27.33;;;;;3.18;68.39;102518.88;5072367;28;45037;-78
2024/01/13 02:49:27;;;;;;;;;37.67;31.67;;;;;3.25;68.25;102530.91;5074331;28;45155;-78
2024/01/13 02:51:52;;;;;;;;;42.33;31.67;;;;;3.32;67.94;102506.09;5072352;28;45245;-78
2024/01/13 02:54:18;;;;;;;;;34.67;29.00;;;;;3.56;67.83;102532.44;5072728;28;45538;-79
2024/01/13 02:56:43;;;;;;;;;33.67;27.67;;;;;3.65;67.18;102534.75;5073001;28;44954;-79
2024/01/13 02:59:09;;;;;;;;;35.33;31.33;;;;;3.70;67.28;102526.69;5071884;28;44985;-78
2024/01/13 03:01:34;;;;;;;;;33.00;30.00;;;;;3.57;67.68;102500.81;5073564;28;45120;-79
2024/01/13 03:04:00;;;;;;;;;37.67;28.67;;;;;3.73;67.31;102516.91;5072631;28;45663;-77
2024/01/13 03:06:26;;;;;;;;;28.67;22.33;;;;;3.07;67.00;102418.53;5073611;28;45238;-78
2024/01/13 03:08:53;;;;;;;;;43.67;30.67;;;;;3.47;67.68;102509.09;5074344;28;45059;-78
2024/01/13 03:11:19;;;;;;;;;28.33;19.00;;;;;3.43;68.38;102515.41;5075374;28;45422;-76
2024/01/13 03:13:44;;;;;;;;;35.67;29.33;;;;;3.49;67.70;102507.28;5054267;28;45492;-77
2024/01/13 03:16:10;;;;;;;;;48.00;35.00;;;;;3.33;67.59;102471.03;5072489;28;44962;-77
2024/01/13 03:18:35;;;;;;;;;37.67;26.67;;;;;3.05;66.75;102407.22;5072607;28;44953;-76
2024/01/13 03:21:02;;;;;;;;;31.67;28.00;;;;;3.64;67.12;102485.69;5072454;28;45129;-76
2024/01/13 03:23:28;;;;;;;;;43.00;33.33;;;;;3.75;66.46;102490.53;5072655;28;45059;-78
2024/01/13 03:25:54;;;;;;;;;31.00;26.33;;;;;3.33;66.17;102426.31;5074507;28;45092;-77
2024/01/13 03:28:19;;;;;;;;;37.67;30.67;;;;;3.55;66.04;102450.06;5075025;28;45192;-77
2024/01/13 03:30:44;;;;;;;;;36.33;32.00;;;;;3.46;66.39;102418.00;5074403;28;44891;-77
2024/01/13 03:33:10;;;;;;;;;42.33;34.00;;;;;3.15;66.60;102391.97;5074534;28;45524;-78
2024/01/13 03:35:35;;;;;;;;;37.00;31.67;;;;;2.99;67.21;102397.78;5074062;28;44898;-78
2024/01/13 03:38:00;;;;;;;;;38.00;30.00;;;;;3.13;67.17;102462.13;5073831;28;44909;-78
2024/01/13 03:40:26;;;;;;;;;43.67;30.00;;;;;2.96;68.43;102475.84;5075290;28;45116;-77
2024/01/13 03:42:51;;;;;;;;;38.33;31.33;;;;;2.94;68.02;102446.16;5073266;28;45372;-77
2024/01/13 03:45:16;;;;;;;;;34.33;28.00;;;;;2.73;68.23;102380.31;5072948;28;45000;-77
2024/01/13 03:47:42;;;;;;;;;37.67;32.33;;;;;3.09;67.58;102440.38;5074769;28;45180;-77
2024/01/13 03:50:08;;;;;;;;;34.67;26.00;;;;;2.96;67.84;102412.78;5057002;28;45291;-79
2024/01/13 03:52:33;;;;;;;;;33.33;28.67;;;;;2.94;68.17;102443.53;5074470;28;45032;-77
2024/01/13 03:54:59;;;;;;;;;28.67;22.67;;;;;2.71;69.24;102432.03;5073761;28;45079;-77
2024/01/13 03:57:24;;;;;;;;;36.67;31.00;;;;;2.93;68.25;102437.41;5055459;28;44998;-77
2024/01/13 03:59:50;;;;;;;;;30.33;25.00;;;;;2.82;68.70;102401.94;5075290;28;45071;-78
2024/01/13 04:02:15;;;;;;;;;26.00;20.33;;;;;2.99;68.38;102403.03;5076644;28;44977;-77
2024/01/13 04:04:40;;;;;;;;;27.67;24.00;;;;;2.93;68.12;102381.38;5075051;28;45158;-77
2024/01/13 04:07:06;;;;;;;;;25.67;22.33;;;;;3.45;67.55;102445.22;5074635;28;45059;-78
2024/01/13 04:09:31;;;;;;;;;29.67;23.00;;;;;3.05;67.13;102359.94;5071727;28;45055;-77
2024/01/13 04:11:56;;;;;;;;;29.67;26.00;;;;;3.52;66.76;102438.78;5051896;28;45546;-76
2024/01/13 04:14:22;;;;;;;;;34.67;24.33;;;;;3.59;67.05;102429.75;5070937;28;44960;-78
2024/01/13 04:16:47;;;;;;;;;26.33;22.67;;;;;3.67;66.06;102422.44;5071232;28;44953;-77
2024/01/13 04:19:12;;;;;;;;;33.33;27.00;;;;;3.66;66.10;102410.22;5072556;28;45235;-78
2024/01/13 04:21:39;;;;;;;;;29.00;23.33;;;;;2.74;66.29;102244.63;5071736;28;45442;-79
2024/01/13 04:24:04;;;;;;;;;34.33;30.33;;;;;3.52;67.02;102417.75;5072221;28;45098;-77
2024/01/13 04:26:30;;;;;;;;;32.67;26.67;;;;;3.44;67.73;102427.72;5053693;28;45338;-78
2024/01/13 04:28:55;;;;;;;;;33.00;25.00;;;;;3.32;67.81;102422.00;5071870;28;44902;-78
2024/01/13 04:31:20;;;;;;;;;30.00;25.33;;;;;3.03;67.58;102385.41;5071751;28;45593;-78
2024/01/13 04:33:46;;;;;;;;;27.00;23.33;;;;;3.24;67.66;102426.69;5071281;28;44857;-78
2024/01/13 04:36:11;;;;;;;;;29.67;22.67;;;;;3.26;67.83;102435.38;5053054;28;45172;-76
2024/01/13 04:38:37;;;;;;;;;29.00;24.33;;;;;1.71;67.79;102170.47;5055084;28;45164;-77
2024/01/13 04:41:02;;;;;;;;;25.33;18.67;;;;;3.18;67.95;102426.88;5073380;28;45230;-77
2024/01/13 04:43:28;;;;;;;;;30.67;26.33;;;;;3.12;67.84;102418.38;5073580;28;45057;-77
2024/01/13 04:45:54;;;;;;;;;30.00;22.33;;;;;2.95;68.18;102400.56;5074344;28;45082;-76
2024/01/13 04:48:20;;;;;;;;;29.67;25.00;;;;;3.12;68.27;102424.47;5074217;28;45139;-78
2024/01/13 04:50:45;;;;;;;;;38.00;28.33;;;;;3.16;67.64;102419.97;5073260;28;44966;-77
2024/01/13 04:53:11;;;;;;;;;25.67;23.00;;;;;3.18;67.73;102418.13;5072498;28;44995;-78
2024/01/13 04:55:36;;;;;;;;;29.67;25.67;;;;;2.90;67.94;102378.88;5070823;28;45168;-77
2024/01/13 04:58:02;;;;;;;;;23.33;22.00;;;;;2.99;68.14;102389.03;5071069;28;44992;-78
2024/01/13 05:00:28;;;;;;;;;27.00;22.33;;;;;2.86;68.53;102364.13;5071603;28;45167;-77
2024/01/13 05:02:53;;;;;;;;;28.00;22.33;;;;;3.09;67.77;102393.06;5070929;28;44970;-78
2024/01/13 05:05:19;;;;;;;;;31.00;26.67;;;;;3.14;67.65;102404.25;5068935;28;45108;-80
2024/01/13 05:07:44;;;;;;;;;37.67;22.00;;;;;2.76;67.86;102347.84;5073218;28;44957;-77
2024/01/13 05:10:10;;;;;;;;;33.00;26.67;;;;;3.10;67.75;102405.28;5073181;28;45217;-78
2024/01/13 05:12:35;;;;;;;;;18.33;17.33;;;;;2.80;67.83;102354.69;5073555;28;45088;-79
2024/01/13 05:15:00;;;;;;;;;24.00;19.00;;;;;2.56;67.70;102329.31;5073723;28;45264;-79
2024/01/13 05:17:26;;;;;;;;;35.33;29.67;;;;;2.60;68.07;102337.03;5073283;28;45231;-77
2024/01/13 05:19:51;;;;;;;;;29.33;22.00;;;;;2.92;68.26;102391.03;5072788;28;45771;-77
2024/01/13 05:22:16;;;;;;;;;23.67;19.67;;;;;2.03;68.00;102246.28;5072689;28;45215;-78
2024/01/13 05:24:42;;;;;;;;;29.67;25.00;;;;;2.39;68.64;102306.25;5072679;28;45214;-77
2024/01/13 05:27:08;;;;;;;;;36.00;22.67;;;;;2.86;68.48;102379.91;5075509;28;45106;-79
2024/01/13 05:29:33;;;;;;;;;31.67;25.00;;;;;2.88;68.87;102378.06;5055354;28;46528;-77
2024/01/13 05:31:59;;;;;;;;;23.33;20.00;;;;;2.98;68.64;102374.19;5073105;28;45094;-80
2024/01/13 05:34:24;;;;;;;;;22.00;13.33;;;;;2.85;68.45;102334.38;5072489;28;45370;-79
2024/01/13 05:36:49;;;;;;;;;26.67;18.33;;;;;3.00;68.03;102368.00;5071544;28;45002;-77
2024/01/13 05:39:15;;;;;;;;;22.67;16.33;;;;;2.47;68.01;102288.50;5053798;28;47329;-77
2024/01/13 05:41:40;;;;;;;;;31.67;26.67;;;;;2.65;68.47;102319.34;5056416;28;44925;-78
2024/01/13 05:44:05;;;;;;;;;23.00;20.00;;;;;2.74;68.84;102349.66;5055415;28;45095;-78
2024/01/13 05:46:31;;;;;;;;;28.67;25.00;;;;;2.70;68.37;102335.78;5055018;28;44939;-78
2024/01/13 05:48:59;;;;;;;;;31.00;20.00;;;;;2.94;68.26;102367.34;5073008;28;45437;-79
2024/01/13 05:51:25;;;;;;;;;30.00;25.67;;;;;2.94;68.83;102362.09;5072960;28;45214;-76
2024/01/13 05:53:50;;;;;;;;;37.67;27.00;;;;;2.85;68.18;102362.44;5071835;28;45127;-80
2024/01/13 05:56:15;;;;;;;;;29.33;24.33;;;;;2.76;68.90;102358.34;5072386;28;45135;-79
2024/01/13 05:58:41;;;;;;;;;34.67;27.67;;;;;2.59;69.59;102356.31;5072747;28;45611;-78
2024/01/13 06:01:06;;;;;;;;;29.33;26.00;;;;;2.56;69.97;102351.16;5076341;28;45104;-78
2024/01/13 06:03:32;;;;;;;;;28.33;22.67;;;;;2.66;69.52;102349.09;5076639;28;45421;-78
2024/01/13 06:05:58;;;;;;;;;30.00;26.00;;;;;2.78;69.50;102350.41;5077141;28;45033;-79
2024/01/13 06:08:23;;;;;;;;;24.67;21.33;;;;;2.71;69.42;102319.13;5058611;28;46480;-78
2024/01/13 06:10:57;;;;;;;;;30.33;23.00;;;;;2.91;69.02;102338.56;5058356;28;45348;-80
2024/01/13 06:13:23;;;;;;;;;34.33;28.67;;;;;2.90;68.85;102340.31;5076031;28;45384;-78
2024/01/13 06:15:48;;;;;;;;;23.33;20.33;;;;;1.56;68.53;102108.09;5077853;28;44982;-79
2024/01/13 06:18:14;;;;;;;;;25.33;21.00;;;;;2.96;68.17;102334.84;5077092;28;45959;-78
2024/01/13 06:20:39;;;;;;;;;26.00;18.00;;;;;3.03;68.12;102324.97;5077091;28;45431;-78
2024/01/13 06:23:06;;;;;;;;;24.33;19.67;;;;;3.01;67.51;102325.03;5079575;28;45027;-78
2024/01/13 06:25:32;;;;;;;;;21.00;19.33;;;;;3.01;68.61;102337.31;5079742;28;44933;-76
2024/01/13 06:27:57;;;;;;;;;36.33;23.33;;;;;3.00;67.76;102320.69;5080408;28;45168;-79
2024/01/13 06:30:31;;;;;;;;;23.33;21.67;;;;;3.11;67.07;102317.66;5080167;28;45112;-79
2024/01/13 06:32:56;;;;;;;;;25.67;20.00;;;;;3.08;67.75;102302.00;5060191;28;45363;-77
2024/01/13 06:35:22;;;;;;;;;27.33;22.33;;;;;3.22;67.18;102327.78;5076522;28;45297;-78
2024/01/13 06:37:47;;;;;;;;;23.67;21.67;;;;;3.22;67.26;102326.00;5076732;28;45114;-78
2024/01/13 06:40:13;;;;;;;;;18.00;13.00;;;;;2.89;67.11;102264.22;5077583;28;45054;-78
2024/01/13 06:42:38;;;;;;;;;26.00;23.33;;;;;2.98;66.97;102269.09;5077671;28;45200;-79
2024/01/13 06:45:04;;;;;;;;;24.00;19.33;;;;;3.07;67.01;102281.06;5076731;28;45162;-80
2024/01/13 06:47:30;;;;;;;;;31.67;27.00;;;;;3.25;67.44;102333.78;5076613;28;45267;-78
2024/01/13 06:49:59;;;;;;;;;30.67;25.33;;;;;3.16;67.66;102331.47;5057828;28;45351;-79
2024/01/13 06:52:24;;;;;;;;;25.00;21.33;;;;;2.80;67.67;102269.78;5058181;28;45199;-78
2024/01/13 06:54:49;;;;;;;;;26.33;20.33;;;;;3.13;68.00;102326.34;5076284;28;45190;-79
2024/01/13 06:57:16;;;;;;;;;26.67;24.00;;;;;2.73;68.22;102280.53;5076031;28;45654;-79
2024/01/13 06:59:43;;;;;;;;;31.67;23.67;;;;;3.05;67.86;102339.78;5077301;28;44910;-77
2024/01/13 07:02:09;;;;;;;;;24.33;19.33;;;;;2.93;67.46;102286.81;5076073;28;45260;-78
2024/01/13 07:04:37;;;;;;;;;31.00;23.00;;;;;2.70;67.47;102264.88;5077113;28;45060;-79
2024/01/13 07:07:02;;;;;;;;;33.67;23.00;;;;;2.97;68.88;102327.81;5076128;28;45183;-77
2024/01/13 07:09:28;;;;;;;;;25.33;20.67;;;;;3.02;68.29;102325.91;5077789;28;45390;-79
2024/01/13 07:11:53;;;;;;;;;24.00;19.00;;;;;3.08;68.03;102323.03;5075541;28;45275;-80
2024/01/13 07:14:18;;;;;;;;;31.33;24.00;;;;;3.11;68.21;102312.41;5075840;28;45422;-78
2024/01/13 07:16:44;;;;;;;;;23.33;15.33;;;;;2.96;67.55;102298.06;5074963;28;45247;-78
2024/01/13 07:19:09;;;;;;;;;24.67;23.67;;;;;2.60;67.61;102232.03;5075616;28;45032;-77
2024/01/13 07:21:35;;;;;;;;;29.33;24.00;;;;;2.60;67.89;102237.28;5074336;28;45139;-78
2024/01/13 07:24:00;;;;;;;;;28.67;21.00;;;;;2.58;68.34;102248.72;5067383;28;45323;-79
2024/01/13 07:26:26;;;;;;;;;28.33;24.67;;;;;3.08;67.85;102322.19;5054290;28;47149;-79
2024/01/13 07:28:51;;;;;;;;;27.67;23.67;;;;;2.57;68.15;102237.34;5073298;28;45180;-77
2024/01/13 07:31:17;;;;;;;;;23.67;18.33;;;;;3.02;67.88;102323.28;5054817;28;45091;-79
2024/01/13 07:33:42;;;;;;;;;25.33;19.33;;;;;2.96;68.00;102303.31;5074427;28;45152;-80
2024/01/13 07:36:08;;;;;;;;;25.00;23.33;;;;;2.47;68.02;102243.88;5069681;28;45360;-79
2024/01/13 07:38:34;;;;;;;;;26.00;20.00;;;;;2.51;68.44;102244.59;5039618;28;45431;-79
2024/01/13 07:40:59;;;;;;;;;24.33;19.67;;;;;2.34;68.09;102206.69;5058720;28;45547;-79
2024/01/13 07:43:25;;;;;;;;;32.67;21.00;;;;;2.97;67.84;102309.41;5040202;28;45361;-78
2024/01/13 07:45:50;;;;;;;;;28.00;20.33;;;;;2.88;68.22;102315.88;5059467;28;45217;-79
2024/01/13 07:48:16;;;;;;;;;32.67;21.67;;;;;2.95;68.12;102317.38;5066558;28;44988;-79
2024/01/13 07:50:41;;;;;;;;;27.67;18.67;;;;;3.04;67.69;102310.94;5053809;28;44907;-78
2024/01/13 07:53:07;;;;;;;;;28.67;22.67;;;;;2.94;67.45;102280.66;5054477;28;45337;-80
2024/01/13 07:55:32;;;;;;;;;21.33;17.33;;;;;3.08;67.23;102288.03;5052881;28;45157;-78
2024/01/13 07:57:57;;;;;;;;;27.67;20.00;;;;;2.62;67.25;102214.44;5053889;28;45311;-78
2024/01/13 08:00:23;;;;;;;;;24.33;22.00;;;;;3.11;66.64;102294.00;5056941;28;44777;-80
2024/01/13 08:02:49;;;;;;;;;24.00;19.00;;;;;2.83;66.87;102243.44;5073608;28;44997;-78
2024/01/13 08:05:14;;;;;;;;;23.67;22.33;;;;;2.59;67.14;102214.53;5069125;28;45938;-77
2024/01/13 08:07:40;;;;;;;;;16.67;16.00;;;;;3.15;66.92;102292.97;5058009;28;45347;-79
2024/01/13 08:10:06;;;;;;;;;23.67;19.33;;;;;3.13;66.23;102292.19;5061586;28;45483;-80
2024/01/13 08:12:31;;;;;;;;;24.00;21.67;;;;;2.83;65.98;102232.94;5043168;28;45438;-79
2024/01/13 08:14:57;;;;;;;;;26.33;24.00;;;;;3.06;66.55;102272.31;5056727;28;45482;-79
2024/01/13 08:17:22;;;;;;;;;24.67;22.67;;;;;2.72;66.47;102231.53;5057383;28;45333;-79
2024/01/13 08:19:48;;;;;;;;;27.00;20.33;;;;;2.82;67.52;102249.59;5056662;28;45723;-78
2024/01/13 08:22:13;;;;;;;;;29.67;25.67;;;;;2.83;67.26;102243.44;5062942;28;45407;-77
2024/01/13 08:24:39;;;;;;;;;30.00;25.00;;;;;3.08;66.42;102283.63;5064818;28;45477;-80
2024/01/13 08:27:05;;;;;;;;;29.67;22.33;;;;;3.09;66.99;102277.44;5059667;28;45532;-79
2024/01/13 08:29:30;;;;;;;;;35.00;26.33;;;;;2.69;66.58;102210.66;5064124;28;45463;-79
2024/01/13 08:31:56;;;;;;;;;13.67;9.33;;;;;2.08;66.66;102110.56;5060152;28;45407;-79
2024/01/13 08:34:21;;;;;;;;;26.67;22.33;;;;;2.98;66.41;102254.19;5071582;28;45772;-79
2024/01/13 08:36:47;;;;;;;;;24.33;20.33;;;;;2.97;66.21;102241.13;5063832;28;45394;-79
2024/01/13 08:39:12;;;;;;;;;29.67;24.67;;;;;3.27;65.99;102282.00;5059098;28;45145;-78
2024/01/13 08:41:38;;;;;;;;;28.67;22.67;;;;;3.28;66.04;102273.19;5064859;28;45271;-79
2024/01/13 08:44:04;;;;;;;;;25.33;22.67;;;;;3.31;66.22;102280.09;5075100;28;45462;-78
2024/01/13 08:46:29;;;;;;;;;24.00;20.67;;;;;3.34;65.93;102277.34;5073346;28;45102;-79
2024/01/13 08:48:54;;;;;;;;;37.67;25.00;;;;;2.80;65.68;102180.50;5055792;28;45155;-82
2024/01/13 08:51:20;;;;;;;;;36.33;28.33;;;;;3.38;65.83;102283.34;5073185;28;45060;-81
2024/01/13 08:53:46;;;;;;;;;37.00;26.33;;;;;3.09;66.40;102255.56;5072913;28;45375;-82
2024/01/13 08:56:12;;;;;;;;;28.00;26.00;;;;;3.10;66.25;102258.13;5072525;28;45042;-82
2024/01/13 08:58:41;;;;;;;;;35.67;24.33;;;;;2.77;66.58;102207.72;5073461;28;44959;-80
2024/01/13 09:01:07;;;;;;;;;36.67;27.33;;;;;2.99;66.31;102234.88;5070017;28;45148;-79
2024/01/13 09:03:32;;;;;;;;;38.67;31.33;;;;;3.35;66.30;102289.56;5074676;28;45485;-80
2024/01/13 09:06:00;;;;;;;;;29.00;26.00;;;;;2.85;65.65;102199.56;5057543;28;45108;-81
2024/01/13 09:08:26;;;;;;;;;30.67;26.00;;;;;3.50;65.95;102303.91;5073858;28;45210;-80
2024/01/13 09:10:51;;;;;;;;;35.00;24.33;;;;;3.03;65.15;102240.91;5071711;28;45207;-79
2024/01/13 09:13:17;;;;;;;;;32.67;26.67;;;;;2.57;65.39;102168.25;5070892;28;45576;-79
2024/01/13 09:15:42;;;;;;;;;31.00;23.33;;;;;3.22;65.44;102306.75;5070873;28;44907;-80
2024/01/13 09:18:10;;;;;;;;;29.33;24.00;;;;;3.27;65.58;102326.69;5070483;28;45271;-81
2024/01/13 09:20:36;;;;;;;;;27.00;24.33;;;;;3.25;65.72;102323.25;5070680;28;45117;-80
2024/01/13 09:23:04;;;;;;;;;37.00;24.67;;;;;2.36;65.86;102159.41;5052180;28;46718;-80
2024/01/13 09:25:29;;;;;;;;;26.00;23.00;;;;;3.31;65.96;102320.38;5071284;28;45088;-76
2024/01/13 09:27:55;;;;;;;;;28.67;22.33;;;;;3.12;66.25;102286.97;5051069;28;45334;-80
2024/01/13 09:30:22;;;;;;;;;28.33;22.67;;;;;2.67;65.95;102214.25;5068379;28;45321;-82
2024/01/13 09:32:50;;;;;;;;;16.67;16.67;;;;;3.32;65.37;102321.25;5059401;28;45456;-79
2024/01/13 09:35:16;;;;;;;;;34.00;23.00;;;;;2.99;65.25;102258.53;5058272;28;45243;-82
2024/01/13 09:37:42;;;;;;;;;25.00;18.33;;;;;1.45;65.33;102016.75;5058451;28;45248;-80
2024/01/13 09:40:11;;;;;;;;;25.67;18.67;;;;;2.28;64.91;102161.47;5058201;28;45434;-85
2024/01/13 09:42:39;;;;;;;;;20.67;17.00;;;;;3.19;65.40;102302.44;5059274;28;46071;-81
2024/01/13 09:45:06;;;;;;;;;26.33;24.33;;;;;3.11;65.65;102308.91;5054915;28;45307;-81
2024/01/13 09:47:32;;;;;;;;;26.00;25.33;;;;;2.36;65.23;102197.00;5040803;28;45821;-78
2024/01/13 09:49:57;;;;;;;;;28.33;23.33;;;;;2.88;65.76;102288.75;5069665;28;45614;-82
2024/01/13 09:52:24;;;;;;;;;32.67;27.00;;;;;2.79;65.08;102276.81;5063831;28;45596;-80
2024/01/13 09:54:58;;;;;;;;;20.67;20.33;;;;;2.97;65.64;102294.50;5047751;28;45368;-80
2024/01/13 09:57:25;;;;;;;;;28.33;22.67;;;;;2.69;65.16;102267.56;5044076;28;45460;-80
2024/01/13 09:59:51;;;;;;;;;22.67;20.33;;;;;3.00;64.85;102340.84;5052081;28;45542;-79
2024/01/13 10:02:16;;;;;;;;;25.00;23.00;;;;;2.13;65.63;102197.81;5060577;28;45434;-85
2024/01/13 10:04:43;;;;;;;;;26.00;23.67;;;;;1.70;65.53;102142.56;5039403;28;45353;-83
2024/01/13 10:07:17;;;;;;;;;27.33;24.33;;;;;3.01;65.07;102332.06;5052238;28;45368;-79
2024/01/13 10:09:42;;;;;;;;;27.67;24.67;;;;;3.09;64.50;102345.75;5053645;28;45347;-79
2024/01/13 10:12:08;;;;;;;;;30.33;25.67;;;;;3.14;64.51;102341.19;5057682;28;45773;-77
2024/01/13 10:14:38;;;;;;;;;27.00;23.00;;;;;3.13;64.38;102310.56;5037185;28;45305;-80
2024/01/13 10:17:04;;;;;;;;;31.67;27.00;;;;;3.38;64.24;102339.41;5036787;28;45371;-79
2024/01/13 10:19:33;;;;;;;;;29.00;19.00;;;;;3.35;63.92;102321.13;5057988;28;45592;-79
2024/01/13 10:21:59;;;;;;;;;25.67;21.00;;;;;3.45;63.34;102337.41;5054027;28;45331;-77
2024/01/13 10:24:24;;;;;;;;;29.33;26.00;;;;;3.45;63.59;102325.13;5054676;28;45244;-79
2024/01/13 10:26:49;;;;;;;;;21.00;20.67;;;;;3.43;62.77;102324.31;5054656;28;45555;-78
2024/01/13 10:29:15;;;;;;;;;32.33;25.00;;;;;3.34;62.62;102304.50;5055545;28;45699;-80
2024/01/13 10:31:40;;;;;;;;;26.33;23.00;;;;;3.34;62.99;102299.22;5057438;28;46183;-78
2024/01/13 10:34:12;;;;;;;;;25.67;22.33;;;;;3.16;63.66;102289.44;5057776;28;45374;-77
2024/01/13 10:36:38;;;;;;;;;26.67;20.00;;;;;3.31;63.32;102304.63;5041287;28;45293;-77
2024/01/13 10:39:03;;;;;;;;;24.67;21.67;;;;;3.24;64.41;102290.00;5058144;28;45371;-79
2024/01/13 10:41:30;;;;;;;;;25.67;24.67;;;;;3.23;63.71;102280.41;5057270;28;46137;-80
2024/01/13 10:43:56;;;;;;;;;33.67;28.33;;;;;3.18;63.52;102256.06;5038197;28;45454;-79
2024/01/13 10:46:23;;;;;;;;;26.00;23.00;;;;;3.09;64.15;102232.78;5063266;28;45195;-78
2024/01/13 10:48:51;;;;;;;;;35.67;28.33;;;;;3.38;64.37;102299.97;5068075;28;45481;-81
2024/01/13 10:51:23;;;;;;;;;29.00;23.67;;;;;3.34;64.03;102280.81;5057009;28;46144;-79
2024/01/13 10:53:51;;;;;;;;;33.00;29.00;;;;;3.41;64.08;102276.22;5057730;28;45434;-80
2024/01/13 10:56:16;;;;;;;;;33.33;25.67;;;;;3.49;64.40;102282.00;5058304;28;45374;-81
2024/01/13 10:58:45;;;;;;;;;35.00;34.00;;;;;3.51;63.85;102280.16;5058376;28;45713;-79
2024/01/13 11:01:11;;;;;;;;;35.33;31.00;;;;;3.02;62.98;102166.47;5057645;28;45482;-78
2024/01/13 11:03:43;;;;;;;;;30.33;25.67;;;;;3.26;64.02;102187.44;5058169;28;45451;-78
2024/01/13 11:06:08;;;;;;;;;41.00;27.00;;;;;3.67;63.43;102243.59;5057499;28;45507;-80
2024/01/13 11:08:40;;;;;;;;;24.33;22.33;;;;;3.70;62.82;102234.72;5059124;28;45430;-80
2024/01/13 11:11:08;;;;;;;;;33.67;28.00;;;;;3.57;62.01;102223.84;5057413;28;46645;-78